createdAt,value
2016-04-22T00:02:02.072Z,5.5
2016-04-22T00:05:14.136Z,5.5
2016-04-22T00:08:25.928Z,5.4
2016-04-22T00:11:37.796Z,5.4
2016-04-22T00:14:50.008Z,5.3
2016-04-22T00:18:02.046Z,5.3
2016-04-22T00:21:12.071Z,5.3
2016-04-22T00:24:25.910Z,5.2
2016-04-22T00:27:37.683Z,5.2
2016-04-22T00:30:49.644Z,5.1
2016-04-22T00:34:01.512Z,5
2016-04-22T00:37:13.364Z,5
2016-04-22T00:40:23.047Z,5
2016-04-22T00:43:36.976Z,5
2016-04-22T00:46:48.813Z,4.9
2016-04-22T00:50:02.430Z,4.9
2016-04-22T00:53:04.267Z,4.9
2016-04-22T00:56:16.181Z,4.8
2016-04-22T00:59:28.098Z,4.7
2016-04-22T01:02:40.027Z,4.8
2016-04-22T01:05:56.896Z,4.7
2016-04-22T01:09:03.763Z,4.7
2016-04-22T01:12:05.615Z,4.6
2016-04-22T01:15:17.373Z,4.6
2016-04-22T01:18:29.306Z,4.5
2016-04-22T01:21:41.329Z,4.4
2016-04-22T01:24:58.009Z,4.3
2016-04-22T01:28:00.158Z,4.3
2016-04-22T01:31:11.838Z,4.3
2016-04-22T01:34:23.661Z,4.2
2016-04-22T01:37:35.560Z,4.2
2016-04-22T01:40:44.568Z,4.2
2016-04-22T01:44:01.216Z,4.1
2016-04-22T01:47:02.974Z,4.1
2016-04-22T01:50:14.639Z,4
2016-04-22T01:53:26.243Z,4
2016-04-22T01:56:37.876Z,4
2016-04-22T01:59:49.322Z,4
2016-04-22T02:03:00.845Z,3.9
2016-04-22T02:06:10.494Z,3.9
2016-04-22T02:09:22.161Z,3.9
2016-04-22T02:12:33.966Z,3.9
2016-04-22T02:15:45.724Z,3.8
2016-04-22T02:19:02.498Z,3.8
2016-04-22T02:22:04.116Z,3.8
2016-04-22T02:25:15.842Z,3.7
2016-04-22T02:28:27.619Z,3.7
2016-04-22T02:31:36.783Z,3.7
2016-04-22T02:34:50.181Z,3.6
2016-04-22T02:38:02.158Z,3.7
2016-04-22T02:41:10.822Z,3.6
2016-04-22T02:44:22.552Z,3.6
2016-04-22T02:47:32.201Z,3.6
2016-04-22T02:50:46.162Z,3.5
2016-04-22T02:54:03.029Z,3.5
2016-04-22T02:57:05.070Z,3.5
2016-04-22T03:00:16.859Z,3.4
2016-04-22T03:03:27.994Z,3.4
2016-04-22T03:06:39.377Z,3.4
2016-04-22T03:09:56.072Z,3.4
2016-04-22T03:13:02.972Z,3.3
2016-04-22T03:16:04.824Z,3.3
2016-04-22T03:19:16.644Z,3.3
2016-04-22T03:22:28.404Z,3.3
2016-04-22T03:25:38.866Z,3.3
2016-04-22T03:28:55.796Z,3.3
2016-04-22T03:32:02.679Z,3.2
2016-04-22T03:35:04.624Z,3.3
2016-04-22T03:38:16.522Z,3.3
2016-04-22T03:41:28.347Z,3.2
2016-04-22T03:44:40.058Z,3.2
2016-04-22T03:47:56.800Z,3.3
2016-04-22T03:51:03.839Z,3.3
2016-04-22T03:54:05.551Z,3.2
2016-04-22T03:57:17.887Z,3.2
2016-04-22T04:00:29.882Z,3.1
2016-04-22T04:03:41.795Z,3.2
2016-04-22T04:06:58.475Z,3.1
2016-04-22T04:10:05.234Z,3.1
2016-04-22T04:13:06.977Z,3.1
2016-04-22T04:16:18.375Z,3.1
2016-04-22T04:19:30.010Z,3.1
2016-04-22T04:22:39.127Z,3.1
2016-04-22T04:25:55.971Z,3.1
2016-04-22T04:29:02.920Z,3
2016-04-22T04:32:04.846Z,3
2016-04-22T04:35:16.141Z,3
2016-04-22T04:38:27.839Z,3
2016-04-22T04:41:43.775Z,3
2016-04-22T04:44:56.613Z,3
2016-04-22T04:48:03.731Z,3.1
2016-04-22T04:51:05.585Z,3.1
2016-04-22T04:54:21.172Z,3.2
2016-04-22T04:57:28.838Z,3.2
2016-04-22T05:00:40.784Z,3.2
2016-04-22T05:03:57.620Z,3.2
2016-04-22T05:07:04.488Z,3.2
2016-04-22T05:10:06.402Z,3.3
2016-04-22T05:13:18.192Z,3.4
2016-04-22T05:16:27.953Z,3.4
2016-04-22T05:19:41.899Z,3.4
2016-04-22T05:22:58.829Z,3.5
2016-04-22T05:26:00.820Z,3.6
2016-04-22T05:29:12.829Z,3.7
2016-04-22T05:32:24.822Z,3.7
2016-04-22T05:35:37.035Z,3.9
2016-04-22T05:38:49.169Z,4.1
2016-04-22T05:42:01.021Z,4.3
2016-04-22T05:45:13.076Z,4.5
2016-04-22T05:48:25.584Z,5
2016-04-22T05:51:34.515Z,5.3
2016-04-22T05:54:46.695Z,5.7
2016-04-22T05:58:01.453Z,6.1
2016-04-22T06:01:14.165Z,6.7
2016-04-22T06:04:26.611Z,7
2016-04-22T06:07:38.841Z,7.4
2016-04-22T06:10:47.645Z,8
2016-04-22T06:14:05.043Z,8.8
2016-04-22T06:17:08.223Z,9.3
2016-04-22T06:20:21.090Z,10.2
2016-04-22T06:23:33.695Z,10.7
2016-04-22T06:26:46.345Z,11
2016-04-22T06:30:04.539Z,11.5
2016-04-22T06:33:07.580Z,11.8
2016-04-22T06:36:18.259Z,12.2
2016-04-22T06:39:32.707Z,11.7
2016-04-22T06:42:45.402Z,11.9
2016-04-22T06:46:03.443Z,12.8
2016-04-22T06:49:06.638Z,13.8
2016-04-22T06:52:20.068Z,14.6
2016-04-22T06:55:33.984Z,14.8
2016-04-22T06:58:47.665Z,15
2016-04-22T07:02:01.172Z,15.4
2016-04-22T07:05:14.931Z,16
2016-04-22T07:08:28.408Z,16.3
2016-04-22T07:11:41.810Z,16.5
2016-04-22T07:15:00.052Z,16.8
2016-04-22T07:18:03.591Z,17.4
2016-04-22T07:21:17.177Z,18.3
2016-04-22T07:24:30.295Z,18.7
2016-04-22T07:27:43.945Z,19.5
2016-04-22T07:31:02.970Z,20.4
2016-04-22T07:34:07.446Z,21
2016-04-22T07:37:21.330Z,21.2
2016-04-22T07:40:34.966Z,20.8
2016-04-22T07:43:46.239Z,20.6
2016-04-22T07:47:05.341Z,22
2016-04-22T07:50:09.083Z,21.9
2016-04-22T07:53:23.138Z,22.8
2016-04-22T07:56:36.134Z,20.6
2016-04-22T07:59:49.157Z,19.8
2016-04-22T08:03:02.899Z,21
2016-04-22T08:06:16.282Z,20.8
2016-04-22T08:09:29.463Z,19.7
2016-04-22T08:12:42.958Z,20.3
2016-04-22T08:16:02.185Z,22.9
2016-04-22T08:19:06.536Z,24.6
2016-04-22T08:22:20.091Z,24.1
2016-04-22T08:25:33.896Z,24.1
2016-04-22T08:28:45.907Z,25.6
2016-04-22T08:32:04.806Z,26.4
2016-04-22T08:35:09.220Z,27.4
2016-04-22T08:38:23.728Z,28.2
2016-04-22T08:41:38.814Z,29.4
2016-04-22T08:44:59.013Z,30.4
2016-04-22T08:48:03.021Z,30.7
2016-04-22T08:51:20.341Z,30.7
2016-04-22T08:54:35.443Z,30.6
2016-04-22T08:57:50.656Z,31.6
2016-04-22T09:01:05.368Z,31.8
2016-04-22T09:04:20.329Z,32.2
2016-04-22T09:07:35.650Z,32.8
2016-04-22T09:10:48.286Z,30.6
2016-04-22T09:14:03.074Z,26.2
2016-04-22T09:17:17.130Z,26.8
2016-04-22T09:20:31.888Z,28.9
2016-04-22T09:23:46.359Z,29.1
2016-04-22T09:27:04.929Z,26.9
2016-04-22T09:30:09.531Z,28
2016-04-22T09:33:23.977Z,29.2
2016-04-22T09:36:38.517Z,30.1
2016-04-22T09:39:57.825Z,29.5
2016-04-22T09:43:02.364Z,29.6
2016-04-22T09:46:16.856Z,30.9
2016-04-22T09:49:31.380Z,31.6
2016-04-22T09:52:45.421Z,31
2016-04-22T09:56:03.993Z,27.7
2016-04-22T09:59:07.204Z,24.6
2016-04-22T10:02:17.571Z,21.1
2016-04-22T10:05:33.031Z,18.6
2016-04-22T10:15:09.293Z,16.6
2016-04-22T10:18:23.426Z,15.6
2016-04-22T10:21:37.499Z,14.8
2016-04-22T10:24:56.851Z,14.9
2016-04-22T10:28:01.547Z,14.8
2016-04-22T10:31:15.695Z,14.7
2016-04-22T10:34:29.532Z,14.6
2016-04-22T10:37:42.355Z,14.6
2016-04-22T10:41:00.160Z,14.4
2016-04-22T10:44:03.434Z,14.3
2016-04-22T10:47:16.629Z,14.1
2016-04-22T10:50:29.746Z,13.9
2016-04-22T10:53:43.070Z,13.2
2016-04-22T10:57:01.218Z,12.8
2016-04-22T11:00:04.523Z,12.9
2016-04-22T11:03:17.891Z,13
2016-04-22T11:06:31.025Z,13.2
2016-04-22T11:09:43.925Z,12.9
2016-04-22T11:13:02.074Z,12.6
2016-04-22T11:16:05.394Z,12.4
2016-04-22T11:19:16.934Z,12.3
2016-04-22T11:22:30.218Z,12.3
2016-04-22T11:25:43.397Z,12.1
2016-04-22T11:29:01.453Z,12
2016-04-22T11:32:04.726Z,11.8
2016-04-22T11:35:17.655Z,11.6
2016-04-22T11:38:30.929Z,11.5
2016-04-22T11:41:41.659Z,11.5
2016-04-22T11:44:59.683Z,11.6
2016-04-22T11:48:02.925Z,11.6
2016-04-22T11:51:15.761Z,11.7
2016-04-22T11:54:27.223Z,11.6
2016-04-22T11:57:40.093Z,11.5
2016-04-22T12:00:57.742Z,11.6
2016-04-22T12:04:05.828Z,11.6
2016-04-22T12:07:06.992Z,11.8
2016-04-22T12:10:21.906Z,11.8
2016-04-22T12:13:35.166Z,11.8
2016-04-22T12:16:46.957Z,11.9
2016-04-22T12:20:04.888Z,11.9
2016-04-22T12:23:08.272Z,12
2016-04-22T12:26:21.185Z,12.1
2016-04-22T12:29:33.522Z,12
2016-04-22T12:32:46.548Z,12
2016-04-22T12:36:04.494Z,12
2016-04-22T12:39:07.690Z,11.9
2016-04-22T12:42:20.494Z,12
2016-04-22T12:45:33.674Z,12.1
2016-04-22T12:48:46.841Z,12.2
2016-04-22T12:52:04.645Z,12.1
2016-04-22T12:55:07.747Z,12.1
2016-04-22T12:58:20.412Z,12.2
2016-04-22T13:01:33.217Z,12.3
2016-04-22T13:04:45.744Z,12.2
2016-04-22T13:08:03.491Z,11.9
2016-04-22T13:11:06.640Z,11.8
2016-04-22T13:14:19.648Z,11.8
2016-04-22T13:17:32.317Z,11.8
2016-04-22T13:20:45.233Z,11.9
2016-04-22T13:24:03.294Z,11.8
2016-04-22T13:27:06.380Z,11.8
2016-04-22T13:30:19.264Z,11.8
2016-04-22T13:33:32.308Z,11.9
2016-04-22T13:36:40.974Z,11.8
2016-04-22T13:40:01.013Z,11.9
2016-04-22T13:43:04.211Z,11.9
2016-04-22T13:46:14.805Z,12
2016-04-22T13:49:25.146Z,11.9
2016-04-22T13:52:35.548Z,12
2016-04-22T13:55:48.561Z,12
2016-04-22T13:59:04.553Z,12.1
2016-04-22T14:02:07.734Z,12.1
2016-04-22T14:05:17.461Z,12.1
2016-04-22T14:08:30.625Z,12.1
2016-04-22T14:11:43.777Z,12
2016-04-22T14:15:00.894Z,11.9
2016-04-22T14:18:04.277Z,11.9
2016-04-22T14:21:17.237Z,11.9
2016-04-22T14:24:30.496Z,12
2016-04-22T14:27:43.449Z,12
2016-04-22T14:31:01.411Z,12
2016-04-22T14:34:04.794Z,11.9
2016-04-22T14:37:17.692Z,12
2016-04-22T14:40:30.903Z,12
2016-04-22T14:43:44.274Z,12
2016-04-22T14:47:02.312Z,12.1
2016-04-22T14:50:05.680Z,12.2
2016-04-22T14:53:18.720Z,12.2
2016-04-22T14:56:31.993Z,12.2
2016-04-22T14:59:45.223Z,12.2
2016-04-22T15:03:03.309Z,12.2
2016-04-22T15:06:06.567Z,12.1
2016-04-22T15:09:19.731Z,12.1
2016-04-22T15:12:32.802Z,12.1
2016-04-22T15:15:46.093Z,12.1
2016-04-22T15:22:05.516Z,12.1
2016-04-22T15:25:20.821Z,12
2016-04-22T15:28:33.954Z,12
2016-04-22T15:31:46.886Z,12
2016-04-22T15:35:04.895Z,12
2016-04-22T15:38:08.184Z,11.9
2016-04-22T15:41:21.083Z,11.9
2016-04-22T15:44:34.310Z,11.8
2016-04-22T15:47:46.898Z,11.8
2016-04-22T15:51:04.740Z,11.8
2016-04-22T15:54:07.920Z,11.8
2016-04-22T15:57:20.881Z,11.9
2016-04-22T16:00:34.030Z,11.9
2016-04-22T16:03:47.134Z,11.9
2016-04-22T16:07:05.017Z,11.9
2016-04-22T16:10:08.291Z,11.8
2016-04-22T16:13:17.908Z,11.8
2016-04-22T16:16:30.963Z,11.7
2016-04-22T16:19:44.034Z,11.7
2016-04-22T16:23:02.076Z,11.6
2016-04-22T16:26:05.334Z,11.6
2016-04-22T16:29:18.483Z,11.5
2016-04-22T16:32:31.506Z,11.5
2016-04-22T16:35:44.734Z,11.6
2016-04-22T16:39:02.791Z,11.6
2016-04-22T16:42:06.080Z,11.6
2016-04-22T16:45:18.807Z,11.5
2016-04-22T16:48:29.487Z,11.5
2016-04-22T16:51:41.573Z,11.4
2016-04-22T16:54:59.318Z,11.3
2016-04-22T16:58:02.482Z,11.3
2016-04-22T17:01:14.209Z,11.3
2016-04-22T17:04:27.498Z,11.2
2016-04-22T17:07:40.507Z,11.2
2016-04-22T17:10:58.206Z,11.2
2016-04-22T17:14:06.386Z,11.1
2016-04-22T17:17:09.503Z,11.1
2016-04-22T17:20:19.463Z,11
2016-04-22T17:23:32.367Z,11
2016-04-22T17:26:49.347Z,11
2016-04-22T17:30:03.136Z,10.9
2016-04-22T17:33:06.285Z,10.9
2016-04-22T17:36:19.027Z,10.9
2016-04-22T17:39:29.833Z,10.7
2016-04-22T17:42:44.981Z,10.6
2016-04-22T17:46:02.460Z,10.6
2016-04-22T17:49:03.296Z,10.5
2016-04-22T17:52:18.413Z,10.4
2016-04-22T17:55:31.109Z,10.4
2016-04-22T17:58:43.852Z,10.4
2016-04-22T18:01:58.316Z,10.3
2016-04-22T18:05:06.167Z,10.3
2016-04-22T18:08:09.129Z,10.2
2016-04-22T18:11:22.043Z,10.2
2016-04-22T18:14:34.769Z,10.1
2016-04-22T18:17:47.528Z,10
2016-04-22T18:21:05.366Z,9.9
2016-04-22T18:24:08.313Z,9.9
2016-04-22T18:27:21.337Z,9.8
2016-04-22T18:30:31.579Z,9.7
2016-04-22T18:33:43.587Z,9.6
2016-04-22T18:36:59.691Z,9.6
2016-04-22T18:40:02.636Z,9.5
2016-04-22T18:43:15.223Z,9.5
2016-04-22T18:46:27.590Z,9.4
2016-04-22T18:49:40.395Z,9.4
2016-04-22T18:52:57.890Z,9.3
2016-04-22T18:56:05.632Z,9.3
2016-04-22T18:59:08.344Z,9.2
2016-04-22T19:02:20.967Z,9.1
2016-04-22T19:05:33.428Z,9
2016-04-22T19:08:46.170Z,9
2016-04-22T19:12:03.619Z,8.9
2016-04-22T19:15:06.345Z,8.9
2016-04-22T19:18:18.760Z,8.8
2016-04-22T19:21:31.252Z,8.7
2016-04-22T19:24:43.916Z,8.7
2016-04-22T19:28:01.411Z,8.6
2016-04-22T19:31:04.106Z,8.6
2016-04-22T19:34:16.490Z,8.5
2016-04-22T19:37:29.061Z,8.5
2016-04-22T19:40:41.694Z,8.4
2016-04-22T19:43:58.986Z,8.4
2016-04-22T19:47:06.869Z,8.3
2016-04-22T19:50:09.471Z,8.3
2016-04-22T19:53:22.118Z,8.3
2016-04-22T19:56:34.549Z,8.2
2016-04-22T19:59:46.963Z,8.1
2016-04-22T20:03:04.678Z,7.9
2016-04-22T20:06:07.372Z,7.9
2016-04-22T20:09:20.053Z,7.8
2016-04-22T20:12:30.217Z,7.9
2016-04-22T20:15:42.663Z,7.9
2016-04-22T20:19:00.252Z,7.9
2016-04-22T20:22:02.900Z,7.8
2016-04-22T20:25:15.377Z,7.8
2016-04-22T20:28:27.713Z,7.8
2016-04-22T20:31:40.268Z,7.8
2016-04-22T20:34:52.714Z,7.7
2016-04-22T20:38:05.397Z,7.6
2016-04-22T20:41:12.670Z,7.6
2016-04-22T20:44:27.163Z,7.5
2016-04-22T20:47:39.717Z,7.5
2016-04-22T20:50:52.022Z,7.5
2016-04-22T20:54:04.299Z,7.5
2016-04-22T20:57:16.666Z,7.5
2016-04-22T21:00:28.565Z,7.5
2016-04-22T21:03:41.214Z,7.5
2016-04-22T21:06:58.240Z,7.5
2016-04-22T21:10:05.654Z,7.5
2016-04-22T21:13:08.162Z,7.5
2016-04-22T21:16:20.327Z,7.5
2016-04-22T21:19:32.789Z,7.5
2016-04-22T21:22:45.218Z,7.5
2016-04-22T21:26:02.057Z,7.4
2016-04-22T21:29:04.659Z,7.4
2016-04-22T21:32:17.073Z,7.4
2016-04-22T21:35:29.414Z,7.4
2016-04-22T21:38:41.558Z,7.4
2016-04-22T21:41:53.281Z,7.3
2016-04-22T21:45:05.666Z,7.3
2016-04-22T21:48:18.112Z,7.3
2016-04-22T21:51:30.583Z,7.3
2016-04-22T21:54:39.888Z,7.3
2016-04-22T21:57:52.099Z,7.3
2016-04-22T22:01:04.172Z,7.3
2016-04-22T22:04:16.540Z,7.3
2016-04-22T22:07:28.533Z,7.2
2016-04-22T22:10:40.540Z,7.2
2016-04-22T22:13:50.251Z,7.1
2016-04-22T22:17:07.654Z,7.1
2016-04-22T22:20:10.005Z,7
2016-04-22T22:23:22.156Z,7
2016-04-22T22:26:34.478Z,6.9
2016-04-22T22:29:46.313Z,6.9
2016-04-22T22:33:03.543Z,6.9
2016-04-22T22:36:06.098Z,6.8
2016-04-22T22:39:18.283Z,6.8
2016-04-22T22:42:27.452Z,6.8
2016-04-22T22:45:35.793Z,6.7
2016-04-22T22:48:48.097Z,6.7
2016-04-22T22:52:05.291Z,6.7
2016-04-22T22:55:07.555Z,6.6
2016-04-22T22:58:19.563Z,6.5
2016-04-22T23:01:31.495Z,6.5
2016-04-22T23:04:43.910Z,6.4
2016-04-22T23:08:01.155Z,6.3
2016-04-22T23:11:08.569Z,6.3
2016-04-22T23:14:10.781Z,6.3
2016-04-22T23:17:23.304Z,6.2
2016-04-22T23:20:35.078Z,6.2
2016-04-22T23:23:47.039Z,6.2
2016-04-22T23:27:04.097Z,6.2
2016-04-22T23:30:06.355Z,6.2
2016-04-22T23:33:18.707Z,6.2
2016-04-22T23:36:31.105Z,6.1
2016-04-22T23:39:40.348Z,6.1
2016-04-22T23:42:52.496Z,6.1
2016-04-22T23:46:09.226Z,6.1
2016-04-22T23:49:11.375Z,6.1
2016-04-22T23:52:23.367Z,6.1
2016-04-22T23:55:36.344Z,6
2016-04-22T23:58:47.399Z,6
